Sierra City, California
Current Conditions -  °F | °C
As of 1:52 PM on Friday 24 Oct 2014 (Local Time) from KBLU Reporting Station
Clear Clear  
Wind Chill: 18°   Ceiling: Unl
Heat Index: 18°   Visibility: 10mi
Dew Point: -1°   Wind: 16mph
Humidity: 28%   Direction: 190°S
Pressure: 30.1"   Gusts: NA
Location:  39.57°N, 120.64°W
Report Text: KBLU 242052Z AUTO 19014KT 10SM CLR 18/M01 A3010 RMK AO2 SLP130 T01831006 58012
Loading
Personal Weather Stations






























Interactive Weather Map
Tropical Storm Tracking
New forecast layout! Learn more

10-Day Weather Forecast

Advertisements
Track Severe Weather on mobile